createdAt,value
2023-03-19T00:02:30.858Z,100537.88
2023-03-19T00:05:58.576Z,100543.52
2023-03-19T00:09:28.521Z,100547.66
2023-03-19T00:12:56.087Z,100540.65
2023-03-19T00:16:25.056Z,100541.98
2023-03-19T00:19:53.853Z,100544.75
2023-03-19T00:23:24.399Z,100549.94
2023-03-19T00:26:53.582Z,100552.09
2023-03-19T00:30:21.232Z,100550.41
2023-03-19T00:33:53.355Z,100547.51
2023-03-19T00:37:23.001Z,100548.58
2023-03-19T00:40:50.122Z,100547.91
2023-03-19T00:44:18.096Z,100543.48
2023-03-19T00:47:45.604Z,100548.66
2023-03-19T00:51:14.038Z,100549.07
2023-03-19T00:54:41.857Z,100546.86
2023-03-19T00:58:10.446Z,100547.04
2023-03-19T01:01:38.159Z,100546.66
2023-03-19T01:05:04.741Z,100545.27
2023-03-19T01:08:31.896Z,100545.02
2023-03-19T01:11:58.948Z,100546.52
2023-03-19T01:15:26.234Z,100546.63
2023-03-19T01:18:53.791Z,100554.81
2023-03-19T01:22:22.257Z,100557.36
2023-03-19T01:25:54.445Z,100554.55
2023-03-19T01:29:21.995Z,100553.23
2023-03-19T01:32:52.367Z,100554.14
2023-03-19T01:36:38.533Z,100546.33
2023-03-19T01:40:07.731Z,100547.06
2023-03-19T01:43:35.074Z,100544.58
2023-03-19T01:47:38.526Z,100546.28
2023-03-19T01:51:14.011Z,100551.89
2023-03-19T02:00:17.282Z,100555.45
2023-03-19T02:03:45.639Z,100555.02
2023-03-19T02:07:18.797Z,100552.17
2023-03-19T02:10:48.501Z,100551.11
2023-03-19T02:14:15.571Z,100548.20
2023-03-19T02:17:43.515Z,100545.13
2023-03-19T02:21:15.346Z,100539.49
2023-03-19T02:24:53.944Z,100538.03
2023-03-19T02:28:23.829Z,100541.70
2023-03-19T02:31:51.913Z,100539.15
2023-03-19T02:35:19.351Z,100537.30
2023-03-19T02:38:48.109Z,100537.00
2023-03-19T02:42:18.948Z,100535.39
2023-03-19T02:45:46.581Z,100537.40
2023-03-19T02:49:14.434Z,100542.14
2023-03-19T02:52:42.799Z,100539.83
2023-03-19T02:56:13.031Z,100544.52
2023-03-19T02:59:41.402Z,100548.38
2023-03-19T03:03:09.106Z,100545.86
2023-03-19T03:06:36.761Z,100547.26
2023-03-19T03:10:06.317Z,100547.48
2023-03-19T03:13:33.891Z,100547.54
2023-03-19T03:17:02.148Z,100545.52
2023-03-19T03:20:29.442Z,100550.02
2023-03-19T03:23:57.224Z,100553.45
2023-03-19T03:27:25.800Z,100552.23
2023-03-19T03:30:53.314Z,100555.83
2023-03-19T03:34:20.269Z,100557.88
2023-03-19T03:37:46.978Z,100557.78
2023-03-19T03:41:18.733Z,100558.02
2023-03-19T03:44:45.655Z,100561.44
2023-03-19T03:48:15.192Z,100563.02
2023-03-19T03:51:42.761Z,100564.99
2023-03-19T03:55:11.115Z,100561.34
2023-03-19T03:58:38.058Z,100555.65
2023-03-19T04:02:05.174Z,100552.78
2023-03-19T04:05:32.569Z,100553.04
2023-03-19T04:08:59.124Z,100547.63
2023-03-19T04:12:26.524Z,100552.02
2023-03-19T04:15:54.906Z,100556.64
2023-03-19T04:19:22.161Z,100558.17
2023-03-19T04:22:49.085Z,100554.40
2023-03-19T04:26:16.388Z,100557.48
2023-03-19T04:29:43.375Z,100561.11
2023-03-19T04:33:11.169Z,100563.84
2023-03-19T04:36:38.790Z,100561.54
2023-03-19T04:40:06.814Z,100571.61
2023-03-19T04:43:34.940Z,100573.89
2023-03-19T04:47:03.208Z,100579.09
2023-03-19T04:50:35.299Z,100578.84
2023-03-19T04:54:02.778Z,100583.02
2023-03-19T04:57:29.764Z,100575.70
2023-03-19T05:00:56.755Z,100572.83
2023-03-19T05:04:32.107Z,100568.42
2023-03-19T05:08:03.804Z,100570.09
2023-03-19T05:11:30.803Z,100565.91
2023-03-19T05:15:06.750Z,100567.33
2023-03-19T05:18:38.376Z,100567.20
2023-03-19T05:22:06.576Z,100567.89
2023-03-19T05:25:35.492Z,100570.33
2023-03-19T05:29:05.214Z,100572.77
2023-03-19T05:32:40.983Z,100570.27
2023-03-19T05:36:12.631Z,100565.05
2023-03-19T05:39:47.367Z,100564.31
2023-03-19T05:43:14.985Z,100566.82
2023-03-19T05:46:43.783Z,100568.96
2023-03-19T05:50:13.142Z,100577.30
2023-03-19T05:53:49.836Z,100578.74
2023-03-19T05:57:42.587Z,100575.88
2023-03-19T06:01:13.878Z,100579.73
2023-03-19T06:04:40.439Z,100580.83
2023-03-19T06:08:08.352Z,100589.66
2023-03-19T06:11:53.378Z,100593.86
2023-03-19T06:15:39.066Z,100596.34
2023-03-19T06:19:23.639Z,100605.67
2023-03-19T06:22:50.227Z,100608.66
2023-03-19T06:26:17.547Z,100610.07
2023-03-19T06:29:51.658Z,100614.02
2023-03-19T06:33:26.050Z,100620.02
2023-03-19T06:36:54.083Z,100616.54
2023-03-19T06:40:20.869Z,100612.69
2023-03-19T06:43:48.125Z,100610.69
2023-03-19T06:47:15.640Z,100617.60
2023-03-19T06:50:42.950Z,100617.09
2023-03-19T06:54:10.015Z,100617.77
2023-03-19T06:57:36.969Z,100620.02
2023-03-19T07:01:04.033Z,100618.69
2023-03-19T07:04:31.869Z,100624.73
2023-03-19T07:07:58.747Z,100624.13
2023-03-19T07:11:25.390Z,100632.17
2023-03-19T07:14:52.198Z,100631.92
2023-03-19T07:18:18.842Z,100623.92
2023-03-19T07:21:45.719Z,100619.66
2023-03-19T07:25:13.167Z,100626.65
2023-03-19T07:28:40.482Z,100631.02
2023-03-19T07:32:13.065Z,100626.99
2023-03-19T07:35:39.765Z,100629.16
2023-03-19T07:39:06.656Z,100637.45
2023-03-19T07:42:34.159Z,100640.83
2023-03-19T07:46:01.717Z,100643.55
2023-03-19T07:49:28.625Z,100639.03
2023-03-19T07:52:55.863Z,100630.90
2023-03-19T07:56:23.180Z,100631.94
2023-03-19T07:59:50.141Z,100637.77
2023-03-19T08:03:17.418Z,100638.56
2023-03-19T08:06:44.150Z,100636.57
2023-03-19T08:10:18.672Z,100639.02
2023-03-19T08:13:45.567Z,100638.12
2023-03-19T08:17:12.850Z,100636.71
2023-03-19T08:20:39.770Z,100629.42
2023-03-19T08:24:07.125Z,100630.95
2023-03-19T08:27:35.906Z,100623.83
2023-03-19T08:31:10.148Z,100622.61
2023-03-19T08:34:37.611Z,100619.81
2023-03-19T08:38:04.004Z,100622.02
2023-03-19T08:41:30.598Z,100615.92
2023-03-19T08:44:57.136Z,100618.69
2023-03-19T08:48:23.784Z,100620.55
2023-03-19T08:51:51.037Z,100615.56
2023-03-19T08:55:18.450Z,100619.33
2023-03-19T08:58:45.831Z,100621.36
2023-03-19T09:02:13.135Z,100620.13
2023-03-19T09:05:40.275Z,100619.72
2023-03-19T09:09:07.336Z,100620.77
2023-03-19T09:12:34.268Z,100618.14
2023-03-19T09:16:01.701Z,100624.00
2023-03-19T09:19:28.558Z,100622.56
2023-03-19T09:22:55.614Z,100614.89
2023-03-19T09:26:22.832Z,100613.95
2023-03-19T09:29:49.558Z,100619.58
2023-03-19T09:33:17.484Z,100620.97
2023-03-19T09:36:44.152Z,100619.09
2023-03-19T09:40:24.832Z,100614.84
2023-03-19T09:44:14.956Z,100610.18
2023-03-19T09:47:42.103Z,100609.81
2023-03-19T09:51:17.041Z,100613.95
2023-03-19T09:54:49.102Z,100616.85
2023-03-19T09:58:19.928Z,100611.13
2023-03-19T10:01:54.639Z,100608.96
2023-03-19T10:05:32.704Z,100606.59
2023-03-19T10:09:25.377Z,100607.64
2023-03-19T10:12:59.565Z,100605.33
2023-03-19T10:16:29.052Z,100605.06
2023-03-19T10:20:00.216Z,100605.72
2023-03-19T10:23:45.907Z,100605.50
2023-03-19T10:27:16.274Z,100602.71
2023-03-19T10:30:47.356Z,100606.55
2023-03-19T10:34:32.920Z,100599.66
2023-03-19T10:38:10.020Z,100593.31
2023-03-19T10:41:51.457Z,100592.23
2023-03-19T10:45:26.573Z,100594.64
2023-03-19T10:48:53.624Z,100599.13
2023-03-19T10:52:31.409Z,100595.27
2023-03-19T10:56:02.227Z,100589.83
2023-03-19T10:59:35.112Z,100588.89
2023-03-19T11:03:05.047Z,100584.77
2023-03-19T11:06:36.514Z,100584.00
2023-03-19T11:10:02.972Z,100585.94
2023-03-19T11:13:30.242Z,100582.55
2023-03-19T11:17:05.846Z,100576.02
2023-03-19T11:20:36.605Z,100576.55
2023-03-19T11:24:14.236Z,100575.48
2023-03-19T11:27:42.463Z,100572.09
2023-03-19T11:31:19.731Z,100566.86
2023-03-19T11:34:55.076Z,100563.63
2023-03-19T11:38:33.039Z,100559.04
2023-03-19T11:42:36.157Z,100557.91
2023-03-19T11:46:13.110Z,100557.48
2023-03-19T11:49:51.029Z,100554.44
2023-03-19T11:53:26.446Z,100554.89
2023-03-19T11:57:01.265Z,100555.71
2023-03-19T12:00:38.872Z,100555.17
2023-03-19T12:04:29.527Z,100554.58
2023-03-19T12:08:12.852Z,100554.55
2023-03-19T12:11:44.674Z,100557.98
2023-03-19T12:15:25.724Z,100555.13
2023-03-19T12:19:23.424Z,100553.99
2023-03-19T12:23:06.119Z,100550.83
2023-03-19T12:26:41.173Z,100547.34
2023-03-19T12:30:21.053Z,100539.84
2023-03-19T12:33:58.451Z,100537.00
2023-03-19T12:37:31.861Z,100532.23
2023-03-19T12:41:04.976Z,100528.40
2023-03-19T12:44:35.885Z,100525.05
2023-03-19T12:48:08.739Z,100516.29
2023-03-19T12:51:42.210Z,100513.46
2023-03-19T12:55:14.171Z,100518.23
2023-03-19T12:58:51.204Z,100519.08
2023-03-19T13:02:26.949Z,100519.77
2023-03-19T13:06:00.802Z,100523.27
2023-03-19T13:09:30.302Z,100521.63
2023-03-19T13:12:58.157Z,100521.30
2023-03-19T13:16:36.525Z,100518.14
2023-03-19T13:20:08.196Z,100521.42
2023-03-19T13:23:38.575Z,100516.23
2023-03-19T13:27:07.421Z,100519.84
2023-03-19T13:30:35.249Z,100517.69
2023-03-19T13:34:07.898Z,100522.03
2023-03-19T13:37:34.988Z,100522.95
2023-03-19T13:41:02.499Z,100525.02
2023-03-19T13:44:37.902Z,100525.33
2023-03-19T13:48:38.494Z,100524.21
2023-03-19T13:52:35.292Z,100517.55
2023-03-19T13:56:08.407Z,100519.14
2023-03-19T13:59:44.474Z,100523.27
2023-03-19T14:03:23.969Z,100521.64
2023-03-19T14:06:54.151Z,100521.82
2023-03-19T14:10:26.123Z,100520.70
2023-03-19T14:13:55.223Z,100520.89
2023-03-19T14:17:27.356Z,100517.77
2023-03-19T14:21:07.177Z,100517.88
2023-03-19T14:24:58.433Z,100512.29
2023-03-19T14:28:31.123Z,100512.88
2023-03-19T14:32:01.773Z,100510.58
2023-03-19T14:35:29.721Z,100510.09
2023-03-19T14:39:00.466Z,100511.83
2023-03-19T14:42:35.667Z,100510.39
2023-03-19T14:46:05.843Z,100506.79
2023-03-19T14:49:58.842Z,100505.50
2023-03-19T14:53:41.947Z,100502.45
2023-03-19T14:57:20.229Z,100501.38
2023-03-19T15:00:52.668Z,100502.29
2023-03-19T15:04:23.012Z,100506.20
2023-03-19T15:07:52.787Z,100502.52
2023-03-19T15:11:55.052Z,100497.73
2023-03-19T15:15:32.421Z,100496.73
2023-03-19T15:18:59.788Z,100494.39
2023-03-19T15:22:31.773Z,100493.73
2023-03-19T15:26:02.102Z,100494.99
2023-03-19T15:29:37.997Z,100495.26
2023-03-19T15:33:13.786Z,100495.27
2023-03-19T15:36:44.746Z,100498.01
2023-03-19T15:40:19.215Z,100498.39
2023-03-19T15:43:47.082Z,100497.67
2023-03-19T15:47:21.593Z,100499.03
2023-03-19T15:50:51.961Z,100501.80
2023-03-19T15:54:19.640Z,100501.87
2023-03-19T15:57:47.264Z,100501.31
2023-03-19T16:01:16.696Z,100503.30
2023-03-19T16:05:18.240Z,100507.60
2023-03-19T16:08:35.463Z,100510.92
2023-03-19T16:12:03.942Z,100513.32
2023-03-19T16:15:41.771Z,100520.55
2023-03-19T16:19:28.412Z,100526.54
2023-03-19T16:22:58.820Z,100531.13
2023-03-19T16:26:31.296Z,100532.66
2023-03-19T16:30:01.885Z,100533.84
2023-03-19T16:33:29.705Z,100532.59
2023-03-19T16:36:59.199Z,100538.70
2023-03-19T16:40:46.998Z,100538.67
2023-03-19T16:44:19.359Z,100541.91
2023-03-19T16:47:47.191Z,100542.18
2023-03-19T16:51:18.655Z,100541.77
2023-03-19T16:54:48.409Z,100543.45
2023-03-19T16:58:23.924Z,100548.45
2023-03-19T17:01:53.010Z,100546.16
2023-03-19T17:05:20.141Z,100546.63
2023-03-19T17:08:47.606Z,100548.60
2023-03-19T17:12:18.037Z,100549.93
2023-03-19T17:15:45.393Z,100554.43
2023-03-19T17:19:20.024Z,100553.54
2023-03-19T17:22:46.595Z,100554.95
2023-03-19T17:26:23.854Z,100554.29
2023-03-19T17:29:51.579Z,100554.94
2023-03-19T17:33:25.919Z,100558.11
2023-03-19T17:36:56.328Z,100557.85
2023-03-19T17:40:28.644Z,100559.21
2023-03-19T17:43:56.137Z,100555.85
2023-03-19T17:47:24.694Z,100555.77
2023-03-19T17:50:53.188Z,100554.06
2023-03-19T17:54:20.250Z,100554.73
2023-03-19T17:57:49.393Z,100554.20
2023-03-19T18:01:21.840Z,100553.04
2023-03-19T18:04:52.392Z,100555.89
2023-03-19T18:08:24.181Z,100553.10
2023-03-19T18:11:51.544Z,100550.55
2023-03-19T18:15:19.965Z,100547.10
2023-03-19T18:18:47.960Z,100545.58
2023-03-19T18:22:21.783Z,100546.88
2023-03-19T18:25:51.660Z,100548.54
2023-03-19T18:29:24.172Z,100549.54
2023-03-19T18:32:56.418Z,100550.67
2023-03-19T18:36:27.992Z,100550.67
2023-03-19T18:39:54.836Z,100549.52
2023-03-19T18:43:22.318Z,100548.95
2023-03-19T18:46:49.500Z,100547.05
2023-03-19T18:50:25.149Z,100543.56
2023-03-19T18:53:55.016Z,100545.02
2023-03-19T18:57:27.030Z,100542.94
2023-03-19T19:00:57.515Z,100544.11
2023-03-19T19:04:27.846Z,100547.67
2023-03-19T19:07:59.747Z,100549.05
2023-03-19T19:11:27.630Z,100545.21
2023-03-19T19:14:54.936Z,100544.74
2023-03-19T19:18:32.003Z,100542.58
2023-03-19T19:21:59.092Z,100538.14
2023-03-19T19:25:28.044Z,100534.21
2023-03-19T19:28:57.625Z,100538.16
2023-03-19T19:32:26.688Z,100537.85
2023-03-19T19:35:56.702Z,100535.66
2023-03-19T19:39:24.685Z,100535.30
2023-03-19T19:42:54.780Z,100535.04
2023-03-19T19:46:23.179Z,100539.05
2023-03-19T19:49:50.767Z,100539.77
2023-03-19T19:53:23.809Z,100541.41
2023-03-19T19:56:50.444Z,100546.73
2023-03-19T20:00:24.271Z,100546.67
2023-03-19T20:03:53.119Z,100546.98
2023-03-19T20:07:20.010Z,100553.04
2023-03-19T20:10:48.252Z,100551.44
2023-03-19T20:14:16.337Z,100550.88
2023-03-19T20:17:43.561Z,100549.62
2023-03-19T20:21:12.832Z,100553.59
2023-03-19T20:24:39.957Z,100563.23
2023-03-19T20:28:11.486Z,100561.94
2023-03-19T20:31:52.442Z,100563.20
2023-03-19T20:35:25.259Z,100568.73
2023-03-19T20:38:55.475Z,100568.23
2023-03-19T20:42:23.944Z,100566.73
2023-03-19T20:45:51.506Z,100566.21
2023-03-19T20:49:20.918Z,100567.20
2023-03-19T20:52:48.134Z,100571.13
2023-03-19T20:56:18.863Z,100572.51
2023-03-19T20:59:51.430Z,100572.80
2023-03-19T21:03:27.388Z,100576.15
2023-03-19T21:06:56.405Z,100579.59
2023-03-19T21:10:33.974Z,100582.33
2023-03-19T21:14:04.017Z,100585.39
2023-03-19T21:17:38.816Z,100587.61
2023-03-19T21:21:11.212Z,100586.88
2023-03-19T21:24:40.850Z,100589.58
2023-03-19T21:28:21.164Z,100588.33
2023-03-19T21:31:53.038Z,100587.91
2023-03-19T21:35:30.836Z,100587.03
2023-03-19T21:38:58.543Z,100587.19
2023-03-19T21:42:26.407Z,100579.73
2023-03-19T21:45:55.203Z,100572.23
2023-03-19T21:49:23.729Z,100573.38
2023-03-19T21:52:59.764Z,100570.94
2023-03-19T21:56:33.698Z,100564.31
2023-03-19T22:00:02.263Z,100567.09
2023-03-19T22:03:32.719Z,100564.20
2023-03-19T22:07:01.002Z,100558.02
2023-03-19T22:10:31.489Z,100558.44
2023-03-19T22:14:06.382Z,100554.73
2023-03-19T22:17:34.615Z,100547.41
2023-03-19T22:21:01.913Z,100547.58
2023-03-19T22:24:31.302Z,100545.01
2023-03-19T22:28:01.210Z,100541.73
2023-03-19T22:31:31.290Z,100542.08
2023-03-19T22:34:58.750Z,100539.59
2023-03-19T22:38:26.479Z,100539.20
2023-03-19T22:41:53.666Z,100535.90
2023-03-19T22:45:28.386Z,100542.09
2023-03-19T22:48:56.965Z,100534.46
2023-03-19T22:52:24.325Z,100532.48
2023-03-19T22:55:52.736Z,100532.90
2023-03-19T22:59:20.819Z,100537.09
2023-03-19T23:02:55.212Z,100532.23
2023-03-19T23:06:30.580Z,100532.03
2023-03-19T23:10:01.034Z,100534.34
2023-03-19T23:13:30.404Z,100537.69
2023-03-19T23:17:02.390Z,100536.42
2023-03-19T23:20:34.099Z,100533.75
2023-03-19T23:24:01.553Z,100534.69
2023-03-19T23:27:30.070Z,100533.05
2023-03-19T23:30:56.635Z,100534.90
2023-03-19T23:34:23.738Z,100533.42
2023-03-19T23:37:55.212Z,100535.09
2023-03-19T23:41:27.408Z,100532.08
2023-03-19T23:44:57.695Z,100531.30
2023-03-19T23:48:34.212Z,100532.28
2023-03-19T23:52:02.205Z,100530.64
2023-03-19T23:55:30.182Z,100530.77
2023-03-19T23:58:59.262Z,100526.77
